sensor_id;sensor_type;location;lat;lon;timestamp;P1;durP1;ratioP1;P2;durP2;ratioP2
44304;SDS011;30019;50.576;8.568;2023-03-01T00:01:59;18.80;;;10.57;;
44304;SDS011;30019;50.576;8.568;2023-03-01T00:04:25;15.32;;;9.80;;
44304;SDS011;30019;50.576;8.568;2023-03-01T00:06:52;18.17;;;10.23;;
44304;SDS011;30019;50.576;8.568;2023-03-01T00:09:17;16.98;;;10.20;;
44304;SDS011;30019;50.576;8.568;2023-03-01T00:11:43;17.45;;;10.50;;
44304;SDS011;30019;50.576;8.568;2023-03-01T00:14:09;16.92;;;10.02;;
44304;SDS011;30019;50.576;8.568;2023-03-01T00:16:38;21.83;;;10.98;;
44304;SDS011;30019;50.576;8.568;2023-03-01T00:19:06;23.10;;;11.32;;
44304;SDS011;30019;50.576;8.568;2023-03-01T00:21:33;18.75;;;9.85;;
44304;SDS011;30019;50.576;8.568;2023-03-01T00:24:00;19.87;;;10.65;;
44304;SDS011;30019;50.576;8.568;2023-03-01T00:26:26;16.05;;;10.25;;
44304;SDS011;30019;50.576;8.568;2023-03-01T00:28:52;17.55;;;10.07;;
44304;SDS011;30019;50.576;8.568;2023-03-01T00:31:19;17.77;;;10.70;;
44304;SDS011;30019;50.576;8.568;2023-03-01T00:33:46;19.90;;;10.48;;
44304;SDS011;30019;50.576;8.568;2023-03-01T00:36:12;17.75;;;11.25;;
44304;SDS011;30019;50.576;8.568;2023-03-01T00:38:40;15.82;;;9.95;;
44304;SDS011;30019;50.576;8.568;2023-03-01T00:41:09;19.27;;;11.85;;
44304;SDS011;30019;50.576;8.568;2023-03-01T00:43:37;19.12;;;11.40;;
44304;SDS011;30019;50.576;8.568;2023-03-01T00:46:06;17.35;;;10.75;;
44304;SDS011;30019;50.576;8.568;2023-03-01T00:48:37;23.00;;;11.77;;
44304;SDS011;30019;50.576;8.568;2023-03-01T00:54:01;18.83;;;11.23;;
44304;SDS011;30019;50.576;8.568;2023-03-01T00:56:28;21.12;;;11.23;;
44304;SDS011;30019;50.576;8.568;2023-03-01T00:58:54;24.08;;;11.32;;
44304;SDS011;30019;50.576;8.568;2023-03-01T01:01:24;18.37;;;11.40;;
44304;SDS011;30019;50.576;8.568;2023-03-01T01:03:58;18.85;;;10.55;;
44304;SDS011;30019;50.576;8.568;2023-03-01T01:06:27;18.67;;;10.45;;
44304;SDS011;30019;50.576;8.568;2023-03-01T01:08:55;22.60;;;11.82;;
44304;SDS011;30019;50.576;8.568;2023-03-01T01:11:21;20.33;;;11.07;;
44304;SDS011;30019;50.576;8.568;2023-03-01T01:13:48;21.45;;;12.35;;
44304;SDS011;30019;50.576;8.568;2023-03-01T01:16:15;19.42;;;10.48;;
44304;SDS011;30019;50.576;8.568;2023-03-01T01:18:42;17.37;;;10.52;;
44304;SDS011;30019;50.576;8.568;2023-03-01T01:21:09;17.27;;;11.43;;
44304;SDS011;30019;50.576;8.568;2023-03-01T01:23:37;18.70;;;11.23;;
44304;SDS011;30019;50.576;8.568;2023-03-01T01:26:05;19.08;;;11.70;;
44304;SDS011;30019;50.576;8.568;2023-03-01T01:28:32;22.50;;;12.37;;
44304;SDS011;30019;50.576;8.568;2023-03-01T01:30:58;19.55;;;11.75;;
44304;SDS011;30019;50.576;8.568;2023-03-01T01:33:24;21.37;;;11.68;;
44304;SDS011;30019;50.576;8.568;2023-03-01T01:35:49;22.90;;;12.30;;
44304;SDS011;30019;50.576;8.568;2023-03-01T01:38:15;20.35;;;12.50;;
44304;SDS011;30019;50.576;8.568;2023-03-01T01:40:44;20.48;;;12.40;;
44304;SDS011;30019;50.576;8.568;2023-03-01T01:43:22;20.25;;;12.07;;
44304;SDS011;30019;50.576;8.568;2023-03-01T01:45:57;22.33;;;11.82;;
44304;SDS011;30019;50.576;8.568;2023-03-01T01:48:28;22.62;;;12.73;;
44304;SDS011;30019;50.576;8.568;2023-03-01T01:51:05;21.62;;;12.15;;
44304;SDS011;30019;50.576;8.568;2023-03-01T01:53:35;21.30;;;12.75;;
44304;SDS011;30019;50.576;8.568;2023-03-01T01:56:03;21.08;;;11.63;;
44304;SDS011;30019;50.576;8.568;2023-03-01T01:58:33;22.10;;;12.13;;
44304;SDS011;30019;50.576;8.568;2023-03-01T02:01:00;22.17;;;12.48;;
44304;SDS011;30019;50.576;8.568;2023-03-01T02:03:27;20.62;;;12.57;;
44304;SDS011;30019;50.576;8.568;2023-03-01T02:06:03;23.87;;;12.25;;
44304;SDS011;30019;50.576;8.568;2023-03-01T02:08:47;22.42;;;13.07;;
44304;SDS011;30019;50.576;8.568;2023-03-01T02:11:15;23.55;;;12.30;;
44304;SDS011;30019;50.576;8.568;2023-03-01T02:13:43;23.60;;;14.48;;
44304;SDS011;30019;50.576;8.568;2023-03-01T02:16:13;20.45;;;12.57;;
44304;SDS011;30019;50.576;8.568;2023-03-01T02:18:40;22.00;;;12.30;;
44304;SDS011;30019;50.576;8.568;2023-03-01T02:24:26;22.62;;;12.88;;
44304;SDS011;30019;50.576;8.568;2023-03-01T02:27:00;24.65;;;12.90;;
44304;SDS011;30019;50.576;8.568;2023-03-01T02:29:26;19.73;;;11.90;;
44304;SDS011;30019;50.576;8.568;2023-03-01T02:31:53;21.50;;;12.68;;
44304;SDS011;30019;50.576;8.568;2023-03-01T02:34:22;24.50;;;13.88;;
44304;SDS011;30019;50.576;8.568;2023-03-01T02:39:22;23.77;;;13.50;;
44304;SDS011;30019;50.576;8.568;2023-03-01T02:41:53;22.85;;;14.00;;
44304;SDS011;30019;50.576;8.568;2023-03-01T02:44:20;26.33;;;14.40;;
44304;SDS011;30019;50.576;8.568;2023-03-01T02:46:47;21.83;;;13.57;;
44304;SDS011;30019;50.576;8.568;2023-03-01T02:49:18;22.70;;;13.57;;
44304;SDS011;30019;50.576;8.568;2023-03-01T02:51:52;18.57;;;10.70;;
44304;SDS011;30019;50.576;8.568;2023-03-01T02:54:54;23.77;;;12.90;;
44304;SDS011;30019;50.576;8.568;2023-03-01T02:57:34;18.30;;;11.02;;
44304;SDS011;30019;50.576;8.568;2023-03-01T03:00:06;26.45;;;14.15;;
44304;SDS011;30019;50.576;8.568;2023-03-01T03:02:34;25.25;;;13.77;;
44304;SDS011;30019;50.576;8.568;2023-03-01T03:05:07;27.37;;;15.30;;
44304;SDS011;30019;50.576;8.568;2023-03-01T03:07:36;25.60;;;14.07;;
44304;SDS011;30019;50.576;8.568;2023-03-01T03:10:05;28.25;;;14.20;;
44304;SDS011;30019;50.576;8.568;2023-03-01T03:12:33;27.80;;;14.45;;
44304;SDS011;30019;50.576;8.568;2023-03-01T03:14:58;24.80;;;14.25;;
44304;SDS011;30019;50.576;8.568;2023-03-01T03:17:24;28.00;;;15.23;;
44304;SDS011;30019;50.576;8.568;2023-03-01T03:19:50;24.85;;;14.68;;
44304;SDS011;30019;50.576;8.568;2023-03-01T03:22:15;24.42;;;14.20;;
44304;SDS011;30019;50.576;8.568;2023-03-01T03:24:41;22.90;;;13.85;;
44304;SDS011;30019;50.576;8.568;2023-03-01T03:27:06;24.95;;;14.02;;
44304;SDS011;30019;50.576;8.568;2023-03-01T03:29:32;37.38;;;13.73;;
44304;SDS011;30019;50.576;8.568;2023-03-01T03:31:58;27.35;;;14.63;;
44304;SDS011;30019;50.576;8.568;2023-03-01T03:34:24;24.85;;;13.98;;
44304;SDS011;30019;50.576;8.568;2023-03-01T03:36:54;27.73;;;14.35;;
44304;SDS011;30019;50.576;8.568;2023-03-01T03:39:24;25.50;;;14.40;;
44304;SDS011;30019;50.576;8.568;2023-03-01T03:41:51;23.17;;;13.55;;
44304;SDS011;30019;50.576;8.568;2023-03-01T03:44:17;23.12;;;12.93;;
44304;SDS011;30019;50.576;8.568;2023-03-01T03:46:43;25.70;;;13.82;;
44304;SDS011;30019;50.576;8.568;2023-03-01T03:49:09;31.17;;;11.65;;
44304;SDS011;30019;50.576;8.568;2023-03-01T03:51:34;18.70;;;11.70;;
44304;SDS011;30019;50.576;8.568;2023-03-01T03:54:00;26.83;;;11.68;;
44304;SDS011;30019;50.576;8.568;2023-03-01T03:56:25;18.05;;;11.02;;
44304;SDS011;30019;50.576;8.568;2023-03-01T03:58:51;22.65;;;13.00;;
44304;SDS011;30019;50.576;8.568;2023-03-01T04:01:17;21.83;;;11.02;;
44304;SDS011;30019;50.576;8.568;2023-03-01T04:03:43;24.33;;;12.85;;
44304;SDS011;30019;50.576;8.568;2023-03-01T04:06:12;22.23;;;12.25;;
44304;SDS011;30019;50.576;8.568;2023-03-01T04:08:38;19.02;;;12.05;;
44304;SDS011;30019;50.576;8.568;2023-03-01T04:11:04;25.08;;;12.32;;
44304;SDS011;30019;50.576;8.568;2023-03-01T04:13:49;21.27;;;11.07;;
44304;SDS011;30019;50.576;8.568;2023-03-01T04:16:16;21.75;;;13.13;;
44304;SDS011;30019;50.576;8.568;2023-03-01T04:18:42;17.37;;;10.55;;
44304;SDS011;30019;50.576;8.568;2023-03-01T04:21:08;19.60;;;11.25;;
44304;SDS011;30019;50.576;8.568;2023-03-01T04:23:35;23.10;;;13.13;;
44304;SDS011;30019;50.576;8.568;2023-03-01T04:26:01;19.02;;;11.68;;
44304;SDS011;30019;50.576;8.568;2023-03-01T04:28:31;18.85;;;11.77;;
44304;SDS011;30019;50.576;8.568;2023-03-01T04:31:02;21.55;;;12.23;;
44304;SDS011;30019;50.576;8.568;2023-03-01T04:33:41;24.27;;;11.73;;
44304;SDS011;30019;50.576;8.568;2023-03-01T04:36:09;21.25;;;12.65;;
44304;SDS011;30019;50.576;8.568;2023-03-01T04:38:38;25.58;;;12.30;;
44304;SDS011;30019;50.576;8.568;2023-03-01T04:41:09;29.90;;;11.80;;
44304;SDS011;30019;50.576;8.568;2023-03-01T04:43:36;20.90;;;11.10;;
44304;SDS011;30019;50.576;8.568;2023-03-01T04:46:06;19.87;;;12.18;;
44304;SDS011;30019;50.576;8.568;2023-03-01T04:48:34;20.90;;;11.85;;
44304;SDS011;30019;50.576;8.568;2023-03-01T04:51:01;22.85;;;13.00;;
44304;SDS011;30019;50.576;8.568;2023-03-01T04:53:28;19.73;;;12.90;;
44304;SDS011;30019;50.576;8.568;2023-03-01T04:55:54;22.10;;;11.70;;
44304;SDS011;30019;50.576;8.568;2023-03-01T04:58:25;21.27;;;12.50;;
44304;SDS011;30019;50.576;8.568;2023-03-01T05:00:51;21.15;;;13.20;;
44304;SDS011;30019;50.576;8.568;2023-03-01T05:03:18;23.33;;;12.80;;
44304;SDS011;30019;50.576;8.568;2023-03-01T05:05:45;25.48;;;12.80;;
44304;SDS011;30019;50.576;8.568;2023-03-01T05:08:11;27.45;;;12.43;;
44304;SDS011;30019;50.576;8.568;2023-03-01T05:10:42;20.35;;;12.73;;
44304;SDS011;30019;50.576;8.568;2023-03-01T05:13:15;22.20;;;12.63;;
44304;SDS011;30019;50.576;8.568;2023-03-01T05:15:46;25.65;;;13.07;;
44304;SDS011;30019;50.576;8.568;2023-03-01T05:18:19;19.30;;;11.70;;
44304;SDS011;30019;50.576;8.568;2023-03-01T05:20:44;22.23;;;11.73;;
44304;SDS011;30019;50.576;8.568;2023-03-01T05:23:11;24.23;;;12.48;;
44304;SDS011;30019;50.576;8.568;2023-03-01T05:25:36;21.75;;;12.43;;
44304;SDS011;30019;50.576;8.568;2023-03-01T05:28:05;24.90;;;11.77;;
44304;SDS011;30019;50.576;8.568;2023-03-01T05:30:32;23.67;;;13.32;;
44304;SDS011;30019;50.576;8.568;2023-03-01T05:32:59;20.27;;;12.50;;
44304;SDS011;30019;50.576;8.568;2023-03-01T05:35:25;20.05;;;10.93;;
44304;SDS011;30019;50.576;8.568;2023-03-01T05:37:51;22.85;;;12.32;;
44304;SDS011;30019;50.576;8.568;2023-03-01T05:40:18;24.83;;;13.18;;
44304;SDS011;30019;50.576;8.568;2023-03-01T05:42:46;23.92;;;13.57;;
44304;SDS011;30019;50.576;8.568;2023-03-01T05:45:13;24.60;;;13.55;;
44304;SDS011;30019;50.576;8.568;2023-03-01T05:47:40;22.80;;;13.45;;
44304;SDS011;30019;50.576;8.568;2023-03-01T05:50:08;27.55;;;12.75;;
44304;SDS011;30019;50.576;8.568;2023-03-01T05:52:45;22.80;;;12.90;;
44304;SDS011;30019;50.576;8.568;2023-03-01T05:55:13;23.73;;;14.95;;
44304;SDS011;30019;50.576;8.568;2023-03-01T05:57:40;22.20;;;13.75;;
44304;SDS011;30019;50.576;8.568;2023-03-01T06:00:06;27.08;;;13.07;;
44304;SDS011;30019;50.576;8.568;2023-03-01T06:02:32;26.08;;;14.07;;
44304;SDS011;30019;50.576;8.568;2023-03-01T06:04:57;23.95;;;13.43;;
44304;SDS011;30019;50.576;8.568;2023-03-01T06:07:23;28.02;;;14.73;;
44304;SDS011;30019;50.576;8.568;2023-03-01T06:09:49;27.27;;;14.13;;
44304;SDS011;30019;50.576;8.568;2023-03-01T06:12:14;21.77;;;12.65;;
44304;SDS011;30019;50.576;8.568;2023-03-01T06:14:40;20.00;;;11.15;;
44304;SDS011;30019;50.576;8.568;2023-03-01T06:17:05;24.35;;;12.88;;
44304;SDS011;30019;50.576;8.568;2023-03-01T06:19:31;23.35;;;12.02;;
44304;SDS011;30019;50.576;8.568;2023-03-01T06:21:57;23.42;;;12.80;;
44304;SDS011;30019;50.576;8.568;2023-03-01T06:24:22;23.45;;;12.82;;
44304;SDS011;30019;50.576;8.568;2023-03-01T06:26:48;24.48;;;12.80;;
44304;SDS011;30019;50.576;8.568;2023-03-01T06:29:13;20.85;;;13.13;;
44304;SDS011;30019;50.576;8.568;2023-03-01T06:31:39;22.37;;;13.60;;
44304;SDS011;30019;50.576;8.568;2023-03-01T06:34:05;24.60;;;12.60;;
44304;SDS011;30019;50.576;8.568;2023-03-01T06:36:30;23.50;;;12.32;;
44304;SDS011;30019;50.576;8.568;2023-03-01T06:38:56;26.55;;;14.32;;
44304;SDS011;30019;50.576;8.568;2023-03-01T06:41:21;20.98;;;13.00;;
44304;SDS011;30019;50.576;8.568;2023-03-01T06:43:47;21.80;;;12.95;;
44304;SDS011;30019;50.576;8.568;2023-03-01T06:46:12;21.48;;;10.93;;
44304;SDS011;30019;50.576;8.568;2023-03-01T06:48:38;22.90;;;13.68;;
44304;SDS011;30019;50.576;8.568;2023-03-01T06:51:04;22.67;;;13.18;;
44304;SDS011;30019;50.576;8.568;2023-03-01T06:53:30;25.48;;;13.18;;
44304;SDS011;30019;50.576;8.568;2023-03-01T06:55:56;22.90;;;12.60;;
44304;SDS011;30019;50.576;8.568;2023-03-01T06:58:21;23.38;;;13.85;;
44304;SDS011;30019;50.576;8.568;2023-03-01T07:00:47;28.48;;;13.73;;
44304;SDS011;30019;50.576;8.568;2023-03-01T07:03:13;22.83;;;13.68;;
44304;SDS011;30019;50.576;8.568;2023-03-01T07:05:39;24.20;;;12.98;;
44304;SDS011;30019;50.576;8.568;2023-03-01T07:08:04;21.87;;;13.48;;
44304;SDS011;30019;50.576;8.568;2023-03-01T07:10:30;23.40;;;13.43;;
44304;SDS011;30019;50.576;8.568;2023-03-01T07:12:58;28.33;;;13.27;;
44304;SDS011;30019;50.576;8.568;2023-03-01T07:15:25;22.13;;;12.02;;
44304;SDS011;30019;50.576;8.568;2023-03-01T07:17:51;22.05;;;12.30;;
44304;SDS011;30019;50.576;8.568;2023-03-01T07:20:17;22.40;;;11.35;;
44304;SDS011;30019;50.576;8.568;2023-03-01T07:22:44;18.77;;;11.20;;
44304;SDS011;30019;50.576;8.568;2023-03-01T07:25:10;19.75;;;13.23;;
44304;SDS011;30019;50.576;8.568;2023-03-01T07:27:36;24.75;;;11.35;;
44304;SDS011;30019;50.576;8.568;2023-03-01T07:30:02;20.02;;;11.07;;
44304;SDS011;30019;50.576;8.568;2023-03-01T07:32:28;20.48;;;11.63;;
44304;SDS011;30019;50.576;8.568;2023-03-01T07:34:54;25.35;;;12.48;;
44304;SDS011;30019;50.576;8.568;2023-03-01T07:37:19;21.92;;;10.65;;
44304;SDS011;30019;50.576;8.568;2023-03-01T07:39:45;19.48;;;11.63;;
44304;SDS011;30019;50.576;8.568;2023-03-01T07:42:10;19.15;;;11.77;;
44304;SDS011;30019;50.576;8.568;2023-03-01T07:44:36;20.60;;;12.65;;
44304;SDS011;30019;50.576;8.568;2023-03-01T07:47:02;23.67;;;12.50;;
44304;SDS011;30019;50.576;8.568;2023-03-01T07:49:28;21.33;;;11.90;;
44304;SDS011;30019;50.576;8.568;2023-03-01T07:51:54;26.42;;;12.02;;
44304;SDS011;30019;50.576;8.568;2023-03-01T07:54:20;21.90;;;11.52;;
44304;SDS011;30019;50.576;8.568;2023-03-01T07:56:45;17.30;;;10.13;;
44304;SDS011;30019;50.576;8.568;2023-03-01T07:59:11;20.20;;;13.00;;
44304;SDS011;30019;50.576;8.568;2023-03-01T08:01:37;17.73;;;9.95;;
44304;SDS011;30019;50.576;8.568;2023-03-01T08:04:02;19.75;;;10.85;;
44304;SDS011;30019;50.576;8.568;2023-03-01T08:06:31;17.58;;;10.52;;
44304;SDS011;30019;50.576;8.568;2023-03-01T08:08:59;16.73;;;10.75;;
44304;SDS011;30019;50.576;8.568;2023-03-01T08:11:25;19.70;;;11.52;;
44304;SDS011;30019;50.576;8.568;2023-03-01T08:13:53;19.33;;;10.02;;
44304;SDS011;30019;50.576;8.568;2023-03-01T08:16:19;23.92;;;10.45;;
44304;SDS011;30019;50.576;8.568;2023-03-01T08:18:45;20.92;;;10.55;;
44304;SDS011;30019;50.576;8.568;2023-03-01T08:21:12;20.35;;;11.75;;
44304;SDS011;30019;50.576;8.568;2023-03-01T08:23:40;17.20;;;10.32;;
44304;SDS011;30019;50.576;8.568;2023-03-01T08:26:08;16.77;;;10.50;;
44304;SDS011;30019;50.576;8.568;2023-03-01T08:28:33;20.05;;;9.95;;
44304;SDS011;30019;50.576;8.568;2023-03-01T08:30:59;16.40;;;9.30;;
44304;SDS011;30019;50.576;8.568;2023-03-01T08:33:25;18.87;;;11.40;;
44304;SDS011;30019;50.576;8.568;2023-03-01T08:35:51;19.92;;;7.78;;
44304;SDS011;30019;50.576;8.568;2023-03-01T08:38:17;18.62;;;11.60;;
44304;SDS011;30019;50.576;8.568;2023-03-01T08:40:42;19.00;;;10.40;;
44304;SDS011;30019;50.576;8.568;2023-03-01T08:43:08;19.27;;;10.05;;
44304;SDS011;30019;50.576;8.568;2023-03-01T08:45:33;17.25;;;8.85;;
44304;SDS011;30019;50.576;8.568;2023-03-01T08:47:59;14.13;;;7.43;;
44304;SDS011;30019;50.576;8.568;2023-03-01T08:50:25;12.73;;;6.22;;
44304;SDS011;30019;50.576;8.568;2023-03-01T08:52:50;16.70;;;9.88;;
44304;SDS011;30019;50.576;8.568;2023-03-01T08:55:16;18.85;;;9.63;;
44304;SDS011;30019;50.576;8.568;2023-03-01T08:57:42;16.25;;;9.98;;
44304;SDS011;30019;50.576;8.568;2023-03-01T09:00:08;19.92;;;9.35;;
44304;SDS011;30019;50.576;8.568;2023-03-01T09:02:36;16.17;;;10.02;;
44304;SDS011;30019;50.576;8.568;2023-03-01T09:05:02;14.63;;;8.85;;
44304;SDS011;30019;50.576;8.568;2023-03-01T09:07:28;20.45;;;9.43;;
44304;SDS011;30019;50.576;8.568;2023-03-01T09:09:54;20.25;;;9.93;;
44304;SDS011;30019;50.576;8.568;2023-03-01T09:12:20;17.60;;;9.85;;
44304;SDS011;30019;50.576;8.568;2023-03-01T09:14:46;16.75;;;9.35;;
44304;SDS011;30019;50.576;8.568;2023-03-01T09:17:11;13.32;;;7.80;;
44304;SDS011;30019;50.576;8.568;2023-03-01T09:19:37;13.13;;;6.80;;
44304;SDS011;30019;50.576;8.568;2023-03-01T09:22:03;14.40;;;8.85;;
44304;SDS011;30019;50.576;8.568;2023-03-01T09:24:29;15.13;;;8.20;;
44304;SDS011;30019;50.576;8.568;2023-03-01T09:26:55;15.05;;;8.77;;
44304;SDS011;30019;50.576;8.568;2023-03-01T09:29:21;14.93;;;8.60;;
44304;SDS011;30019;50.576;8.568;2023-03-01T09:31:47;15.63;;;9.10;;
44304;SDS011;30019;50.576;8.568;2023-03-01T09:34:13;22.50;;;9.65;;
44304;SDS011;30019;50.576;8.568;2023-03-01T09:36:41;16.17;;;9.60;;
44304;SDS011;30019;50.576;8.568;2023-03-01T09:39:07;11.20;;;7.37;;
44304;SDS011;30019;50.576;8.568;2023-03-01T09:44:32;16.45;;;8.13;;
44304;SDS011;30019;50.576;8.568;2023-03-01T09:47:17;13.95;;;8.45;;
44304;SDS011;30019;50.576;8.568;2023-03-01T09:49:45;13.90;;;8.40;;
44304;SDS011;30019;50.576;8.568;2023-03-01T09:52:38;15.98;;;7.82;;
44304;SDS011;30019;50.576;8.568;2023-03-01T09:55:11;13.18;;;7.57;;
44304;SDS011;30019;50.576;8.568;2023-03-01T09:57:48;10.95;;;7.10;;
44304;SDS011;30019;50.576;8.568;2023-03-01T10:11:01;13.05;;;6.70;;
44304;SDS011;30019;50.576;8.568;2023-03-01T10:16:10;15.07;;;8.32;;
44304;SDS011;30019;50.576;8.568;2023-03-01T10:18:39;12.57;;;7.62;;
44304;SDS011;30019;50.576;8.568;2023-03-01T10:21:14;16.65;;;8.50;;
44304;SDS011;30019;50.576;8.568;2023-03-01T10:23:42;18.62;;;9.32;;
44304;SDS011;30019;50.576;8.568;2023-03-01T10:34:50;11.38;;;7.28;;
44304;SDS011;30019;50.576;8.568;2023-03-01T10:37:18;15.73;;;8.18;;
44304;SDS011;30019;50.576;8.568;2023-03-01T10:40:01;12.73;;;7.40;;
44304;SDS011;30019;50.576;8.568;2023-03-01T10:42:34;12.75;;;7.47;;
44304;SDS011;30019;50.576;8.568;2023-03-01T10:48:11;12.27;;;7.03;;
44304;SDS011;30019;50.576;8.568;2023-03-01T10:51:04;12.63;;;7.30;;
44304;SDS011;30019;50.576;8.568;2023-03-01T10:53:36;11.23;;;7.22;;
44304;SDS011;30019;50.576;8.568;2023-03-01T10:56:10;15.70;;;8.27;;
44304;SDS011;30019;50.576;8.568;2023-03-01T10:59:00;17.20;;;7.05;;
44304;SDS011;30019;50.576;8.568;2023-03-01T11:01:28;12.48;;;7.00;;
44304;SDS011;30019;50.576;8.568;2023-03-01T11:06:32;17.45;;;8.57;;
44304;SDS011;30019;50.576;8.568;2023-03-01T11:09:15;11.43;;;7.43;;
44304;SDS011;30019;50.576;8.568;2023-03-01T11:11:44;11.32;;;5.95;;
44304;SDS011;30019;50.576;8.568;2023-03-01T11:14:17;16.48;;;8.05;;
44304;SDS011;30019;50.576;8.568;2023-03-01T11:16:49;14.73;;;9.13;;
44304;SDS011;30019;50.576;8.568;2023-03-01T11:19:24;12.77;;;6.82;;
44304;SDS011;30019;50.576;8.568;2023-03-01T11:24:42;9.68;;;6.68;;
44304;SDS011;30019;50.576;8.568;2023-03-01T11:27:15;12.30;;;6.65;;
44304;SDS011;30019;50.576;8.568;2023-03-01T11:29:45;12.55;;;7.60;;
44304;SDS011;30019;50.576;8.568;2023-03-01T11:32:16;14.35;;;7.40;;
44304;SDS011;30019;50.576;8.568;2023-03-01T11:34:43;12.48;;;7.37;;
44304;SDS011;30019;50.576;8.568;2023-03-01T11:37:24;12.63;;;7.07;;
44304;SDS011;30019;50.576;8.568;2023-03-01T11:39:59;12.95;;;7.57;;
44304;SDS011;30019;50.576;8.568;2023-03-01T11:50:53;11.82;;;6.95;;
44304;SDS011;30019;50.576;8.568;2023-03-01T11:53:33;8.68;;;6.60;;
44304;SDS011;30019;50.576;8.568;2023-03-01T11:56:41;12.13;;;6.78;;
44304;SDS011;30019;50.576;8.568;2023-03-01T12:07:20;15.20;;;8.07;;
44304;SDS011;30019;50.576;8.568;2023-03-01T12:18:35;12.57;;;7.93;;
44304;SDS011;30019;50.576;8.568;2023-03-01T12:24:03;13.00;;;7.70;;
44304;SDS011;30019;50.576;8.568;2023-03-01T12:26:44;13.27;;;7.28;;
44304;SDS011;30019;50.576;8.568;2023-03-01T12:29:39;13.25;;;8.02;;
44304;SDS011;30019;50.576;8.568;2023-03-01T12:32:22;13.73;;;7.55;;
44304;SDS011;30019;50.576;8.568;2023-03-01T12:42:58;12.25;;;7.35;;
44304;SDS011;30019;50.576;8.568;2023-03-01T12:48:51;11.55;;;7.55;;
44304;SDS011;30019;50.576;8.568;2023-03-01T12:51:37;9.13;;;6.43;;
44304;SDS011;30019;50.576;8.568;2023-03-01T12:54:07;12.02;;;7.68;;
44304;SDS011;30019;50.576;8.568;2023-03-01T12:56:39;9.50;;;6.55;;
44304;SDS011;30019;50.576;8.568;2023-03-01T13:01:36;16.58;;;7.87;;
44304;SDS011;30019;50.576;8.568;2023-03-01T13:06:53;12.25;;;7.25;;
44304;SDS011;30019;50.576;8.568;2023-03-01T13:09:51;9.43;;;6.53;;
44304;SDS011;30019;50.576;8.568;2023-03-01T13:12:42;10.43;;;6.70;;
44304;SDS011;30019;50.576;8.568;2023-03-01T13:17:52;16.23;;;6.60;;
44304;SDS011;30019;50.576;8.568;2023-03-01T13:20:20;11.00;;;6.93;;
44304;SDS011;30019;50.576;8.568;2023-03-01T13:22:49;10.23;;;6.00;;
44304;SDS011;30019;50.576;8.568;2023-03-01T13:25:26;12.73;;;6.80;;
44304;SDS011;30019;50.576;8.568;2023-03-01T13:27:51;12.77;;;6.50;;
44304;SDS011;30019;50.576;8.568;2023-03-01T13:30:56;9.68;;;6.47;;
44304;SDS011;30019;50.576;8.568;2023-03-01T13:38:39;9.57;;;6.05;;
44304;SDS011;30019;50.576;8.568;2023-03-01T13:41:47;11.35;;;6.70;;
44304;SDS011;30019;50.576;8.568;2023-03-01T13:46:42;11.30;;;6.90;;
44304;SDS011;30019;50.576;8.568;2023-03-01T13:49:11;11.30;;;6.53;;
44304;SDS011;30019;50.576;8.568;2023-03-01T13:51:40;16.00;;;6.40;;
44304;SDS011;30019;50.576;8.568;2023-03-01T13:54:10;12.23;;;6.60;;
44304;SDS011;30019;50.576;8.568;2023-03-01T13:56:37;10.82;;;6.00;;
44304;SDS011;30019;50.576;8.568;2023-03-01T13:59:16;11.30;;;5.93;;
44304;SDS011;30019;50.576;8.568;2023-03-01T14:01:43;7.28;;;5.40;;
44304;SDS011;30019;50.576;8.568;2023-03-01T14:04:28;7.70;;;5.80;;
44304;SDS011;30019;50.576;8.568;2023-03-01T14:07:10;12.70;;;6.03;;
44304;SDS011;30019;50.576;8.568;2023-03-01T14:09:37;10.48;;;6.07;;
44304;SDS011;30019;50.576;8.568;2023-03-01T14:12:23;10.10;;;5.93;;
44304;SDS011;30019;50.576;8.568;2023-03-01T14:15:32;10.55;;;6.97;;
44304;SDS011;30019;50.576;8.568;2023-03-01T14:18:20;8.45;;;6.12;;
44304;SDS011;30019;50.576;8.568;2023-03-01T14:20:52;13.45;;;6.55;;
44304;SDS011;30019;50.576;8.568;2023-03-01T14:23:19;9.80;;;6.43;;
44304;SDS011;30019;50.576;8.568;2023-03-01T14:25:47;7.78;;;5.70;;
44304;SDS011;30019;50.576;8.568;2023-03-01T14:28:19;11.70;;;5.97;;
44304;SDS011;30019;50.576;8.568;2023-03-01T14:30:49;9.18;;;5.80;;
44304;SDS011;30019;50.576;8.568;2023-03-01T14:35:53;10.70;;;7.47;;
44304;SDS011;30019;50.576;8.568;2023-03-01T14:38:29;12.18;;;6.30;;
44304;SDS011;30019;50.576;8.568;2023-03-01T14:41:00;13.32;;;6.90;;
44304;SDS011;30019;50.576;8.568;2023-03-01T14:43:29;17.20;;;6.67;;
44304;SDS011;30019;50.576;8.568;2023-03-01T14:45:56;14.87;;;6.37;;
44304;SDS011;30019;50.576;8.568;2023-03-01T14:48:22;11.63;;;6.40;;
44304;SDS011;30019;50.576;8.568;2023-03-01T14:50:48;10.65;;;5.53;;
44304;SDS011;30019;50.576;8.568;2023-03-01T14:53:25;13.65;;;6.22;;
44304;SDS011;30019;50.576;8.568;2023-03-01T14:55:59;8.75;;;5.85;;
44304;SDS011;30019;50.576;8.568;2023-03-01T14:58:27;8.10;;;5.27;;
44304;SDS011;30019;50.576;8.568;2023-03-01T15:00:58;13.95;;;6.28;;
44304;SDS011;30019;50.576;8.568;2023-03-01T15:03:40;11.45;;;4.80;;
44304;SDS011;30019;50.576;8.568;2023-03-01T15:06:14;11.77;;;4.40;;
44304;SDS011;30019;50.576;8.568;2023-03-01T15:08:46;9.05;;;5.10;;
44304;SDS011;30019;50.576;8.568;2023-03-01T15:11:17;5.87;;;4.05;;
44304;SDS011;30019;50.576;8.568;2023-03-01T15:13:49;8.63;;;3.95;;
44304;SDS011;30019;50.576;8.568;2023-03-01T15:16:19;8.02;;;4.90;;
44304;SDS011;30019;50.576;8.568;2023-03-01T15:18:49;6.10;;;3.78;;
44304;SDS011;30019;50.576;8.568;2023-03-01T15:23:57;8.68;;;4.62;;
44304;SDS011;30019;50.576;8.568;2023-03-01T15:26:40;10.00;;;5.10;;
44304;SDS011;30019;50.576;8.568;2023-03-01T15:29:15;7.97;;;4.70;;
44304;SDS011;30019;50.576;8.568;2023-03-01T15:31:43;8.40;;;4.62;;
44304;SDS011;30019;50.576;8.568;2023-03-01T15:34:26;9.32;;;5.25;;
44304;SDS011;30019;50.576;8.568;2023-03-01T15:36:55;11.07;;;6.60;;
44304;SDS011;30019;50.576;8.568;2023-03-01T15:39:39;11.05;;;4.93;;
44304;SDS011;30019;50.576;8.568;2023-03-01T15:50:05;8.55;;;5.03;;
44304;SDS011;30019;50.576;8.568;2023-03-01T15:52:41;8.00;;;5.12;;
44304;SDS011;30019;50.576;8.568;2023-03-01T15:55:15;18.05;;;10.15;;
44304;SDS011;30019;50.576;8.568;2023-03-01T15:57:45;15.13;;;6.57;;
44304;SDS011;30019;50.576;8.568;2023-03-01T16:00:11;12.30;;;6.28;;
44304;SDS011;30019;50.576;8.568;2023-03-01T16:02:38;19.40;;;9.55;;
44304;SDS011;30019;50.576;8.568;2023-03-01T16:05:05;11.12;;;6.15;;
44304;SDS011;30019;50.576;8.568;2023-03-01T16:07:38;12.63;;;6.97;;
44304;SDS011;30019;50.576;8.568;2023-03-01T16:10:04;9.88;;;4.82;;
44304;SDS011;30019;50.576;8.568;2023-03-01T16:12:30;9.20;;;5.37;;
44304;SDS011;30019;50.576;8.568;2023-03-01T16:14:56;9.63;;;5.18;;
44304;SDS011;30019;50.576;8.568;2023-03-01T16:17:22;7.57;;;5.12;;
44304;SDS011;30019;50.576;8.568;2023-03-01T16:19:48;6.65;;;4.10;;
44304;SDS011;30019;50.576;8.568;2023-03-01T16:22:13;13.55;;;5.40;;
44304;SDS011;30019;50.576;8.568;2023-03-01T16:24:39;7.05;;;4.55;;
44304;SDS011;30019;50.576;8.568;2023-03-01T16:27:06;9.35;;;5.40;;
44304;SDS011;30019;50.576;8.568;2023-03-01T16:29:32;11.05;;;5.97;;
44304;SDS011;30019;50.576;8.568;2023-03-01T16:31:59;13.07;;;5.07;;
44304;SDS011;30019;50.576;8.568;2023-03-01T16:34:26;12.75;;;5.30;;